createdAt,value
2018-11-22T12:17:38.456Z,3.31
2018-11-22T12:20:08.383Z,3.46
2018-11-22T12:22:37.292Z,3.51
2018-11-22T12:25:07.675Z,3.57
2018-11-22T12:27:36.272Z,3.42
2018-11-22T12:30:05.761Z,3.60
2018-11-22T12:32:35.538Z,3.63
2018-11-22T12:36:12.375Z,3.43
2018-11-22T12:38:40.998Z,3.37
2018-11-22T12:41:09.759Z,3.24
2018-11-22T12:43:38.571Z,3.32
2018-11-22T12:46:07.245Z,3.39
2018-11-22T12:48:36.215Z,3.30
2018-11-22T12:51:04.872Z,3.27
2018-11-22T12:53:33.592Z,3.28
2018-11-22T12:56:02.223Z,3.34
2018-11-22T12:58:30.867Z,3.34
2018-11-22T13:01:00.200Z,3.39
2018-11-22T13:03:28.926Z,3.40
2018-11-22T13:05:58.247Z,3.48
2018-11-22T13:08:26.863Z,3.39
2018-11-22T13:10:56.194Z,3.28
2018-11-22T13:13:24.831Z,3.26
2018-11-22T13:15:53.382Z,3.29
2018-11-22T13:18:21.959Z,3.22
2018-11-22T13:20:50.560Z,3.30
2018-11-22T13:23:20.155Z,3.24
2018-11-22T13:25:48.761Z,3.35
2018-11-22T13:28:17.457Z,3.35
2018-11-22T13:30:46.133Z,3.32
2018-11-22T13:33:14.684Z,3.39
2018-11-22T13:35:43.343Z,3.34
2018-11-22T13:38:11.908Z,3.31
2018-11-22T13:40:40.469Z,3.25
2018-11-22T13:43:09.036Z,3.22
2018-11-22T13:45:38.232Z,3.11
2018-11-22T13:48:06.982Z,3.07
2018-11-22T13:50:41.718Z,3.02
2018-11-22T13:53:06.092Z,3.06
2018-11-22T13:55:34.686Z,3.03
2018-11-22T13:58:03.257Z,2.97
2018-11-22T14:00:33.057Z,3.08
2018-11-22T14:03:04.167Z,3.07
2018-11-22T14:05:32.801Z,3.10
2018-11-22T14:08:01.660Z,3.07
2018-11-22T14:10:30.355Z,3.05
2018-11-22T14:12:58.907Z,2.99
2018-11-22T14:15:28.832Z,3.06
2018-11-22T14:17:58.865Z,3.11
2018-11-22T14:20:30.827Z,2.99
2018-11-22T14:22:59.461Z,2.93
2018-11-22T14:25:29.336Z,3.04
2018-11-22T14:27:57.916Z,3.04
2018-11-22T14:30:29.062Z,2.98
2018-11-22T14:32:57.695Z,3.06
2018-11-22T14:35:27.439Z,3.05
2018-11-22T14:37:56.747Z,2.95
2018-11-22T14:40:26.847Z,3.08
2018-11-22T14:42:55.839Z,3.08
2018-11-22T14:45:25.161Z,2.98
2018-11-22T14:47:54.814Z,3.04
2018-11-22T14:51:36.244Z,3.07
2018-11-22T14:54:05.093Z,2.97
2018-11-22T14:56:34.029Z,3.06
2018-11-22T14:59:02.551Z,2.90
2018-11-22T15:01:31.127Z,3.00
2018-11-22T15:03:59.721Z,3.02
2018-11-22T15:06:28.310Z,3.06
2018-11-22T15:08:56.878Z,2.97
2018-11-22T15:11:25.792Z,3.01
2018-11-22T15:13:54.465Z,2.99
2018-11-22T15:16:23.147Z,2.94
2018-11-22T15:18:51.727Z,3.01
2018-11-22T15:21:20.434Z,3.04
2018-11-22T15:23:49.097Z,3.01
2018-11-22T15:26:17.667Z,3.02
2018-11-22T15:28:46.287Z,2.99
2018-11-22T15:31:14.876Z,2.97
2018-11-22T15:33:43.451Z,3.02
2018-11-22T15:36:12.019Z,3.03
2018-11-22T15:38:40.601Z,3.02
2018-11-22T15:41:09.146Z,3.09
2018-11-22T15:43:37.746Z,3.07
2018-11-22T15:46:06.647Z,3.03
2018-11-22T15:48:35.200Z,2.99
2018-11-22T15:51:03.777Z,3.09
2018-11-22T15:53:32.863Z,3.00
2018-11-22T15:56:01.920Z,2.95
2018-11-22T15:58:30.513Z,2.95
2018-11-22T16:00:59.067Z,3.06
2018-11-22T16:03:27.640Z,3.03
2018-11-22T16:05:56.265Z,3.03
2018-11-22T16:08:24.983Z,2.96
2018-11-22T16:10:53.709Z,2.96
2018-11-22T16:13:22.285Z,2.97
2018-11-22T16:15:52.566Z,3.07
2018-11-22T16:18:21.137Z,2.92
2018-11-22T16:20:49.769Z,3.01
2018-11-22T16:23:18.553Z,2.95
2018-11-22T16:25:47.131Z,2.98
2018-11-22T16:28:15.709Z,3.05
2018-11-22T16:30:44.726Z,2.96
2018-11-22T16:33:13.365Z,3.09
2018-11-22T16:35:42.339Z,3.06
2018-11-22T16:38:11.401Z,3.12
2018-11-22T16:40:40.047Z,3.09
2018-11-22T16:43:08.462Z,3.07
2018-11-22T16:45:38.854Z,3.04
2018-11-22T16:48:09.701Z,3.11
2018-11-22T16:50:39.403Z,3.01
2018-11-22T16:53:08.028Z,3.09
2018-11-22T16:55:36.767Z,3.05
2018-11-22T16:58:05.924Z,3.10
2018-11-22T17:00:38.775Z,3.12
2018-11-22T17:03:10.359Z,3.18
2018-11-22T17:05:39.202Z,3.04
2018-11-22T17:08:08.603Z,3.11
2018-11-22T17:10:37.853Z,2.93
2018-11-22T17:13:06.843Z,3.00
2018-11-22T17:15:37.060Z,3.02
2018-11-22T17:18:06.669Z,3.06
2018-11-22T17:20:35.545Z,2.95
2018-11-22T17:23:05.042Z,3.12
2018-11-22T17:25:34.856Z,3.10
2018-11-22T17:28:05.722Z,3.00
2018-11-22T17:30:38.890Z,3.02
2018-11-22T17:33:07.454Z,3.09
2018-11-22T17:35:36.434Z,3.05
2018-11-22T17:38:06.484Z,3.05
2018-11-22T17:40:43.052Z,3.06
2018-11-22T17:43:11.586Z,3.09
2018-11-22T17:45:42.411Z,3.07
2018-11-22T17:48:11.284Z,3.09
2018-11-22T17:50:41.510Z,3.14
2018-11-22T17:53:11.160Z,3.14
2018-11-22T17:55:41.439Z,3.05
2018-11-22T17:58:10.139Z,3.02
2018-11-22T18:00:40.378Z,3.15
2018-11-22T18:03:09.099Z,3.12
2018-11-22T18:05:37.886Z,3.10
2018-11-22T18:08:06.476Z,3.16
2018-11-22T18:10:38.026Z,3.12
2018-11-22T18:13:06.866Z,3.13
2018-11-22T18:16:07.374Z,3.14
2018-11-22T18:18:35.912Z,3.07
2018-11-22T18:21:04.815Z,2.97
2018-11-22T18:23:33.637Z,3.04
2018-11-22T18:26:02.127Z,3.21
2018-11-22T18:28:30.703Z,3.07
2018-11-22T18:30:59.231Z,3.25
2018-11-22T18:33:29.177Z,3.24
2018-11-22T18:35:57.659Z,3.10
2018-11-22T18:38:26.187Z,3.20
2018-11-22T18:40:54.722Z,3.35
2018-11-22T18:43:23.318Z,3.08
2018-11-22T18:45:52.539Z,3.22
2018-11-22T18:48:21.666Z,3.20
2018-11-22T18:50:50.471Z,3.09
2018-11-22T18:53:19.242Z,3.09
2018-11-22T18:55:47.746Z,3.07
2018-11-22T18:58:16.411Z,3.15
2018-11-22T19:00:46.075Z,3.10
2018-11-22T19:03:16.347Z,2.99
2018-11-22T19:05:45.810Z,3.06
2018-11-22T19:08:14.308Z,3.16
2018-11-22T19:10:43.681Z,3.16
2018-11-22T19:13:12.799Z,3.05
2018-11-22T19:15:42.957Z,3.15
2018-11-22T19:18:13.054Z,3.18
2018-11-22T19:20:43.240Z,3.03
2018-11-22T19:23:12.760Z,3.17
2018-11-22T19:25:41.456Z,3.22
2018-11-22T19:28:10.294Z,3.03
2018-11-22T19:30:42.632Z,3.12
2018-11-22T19:33:12.963Z,3.10
2018-11-22T19:35:43.128Z,3.12
2018-11-22T19:38:12.087Z,3.08
2018-11-22T19:40:41.523Z,3.06
2018-11-22T19:43:10.778Z,3.10
2018-11-22T19:45:41.918Z,3.17
2018-11-22T19:48:11.040Z,3.17
2018-11-22T19:50:40.336Z,3.20
2018-11-22T19:53:11.252Z,3.15
2018-11-22T19:55:40.410Z,3.10
2018-11-22T19:58:11.174Z,3.16
2018-11-22T20:00:39.734Z,3.08
2018-11-22T20:03:09.137Z,3.14
2018-11-22T20:05:39.242Z,3.14
2018-11-22T20:08:09.520Z,3.22
2018-11-22T20:10:39.525Z,3.11
2018-11-22T20:13:08.071Z,3.17
2018-11-22T20:15:36.604Z,3.17
2018-11-22T20:18:06.763Z,3.16
2018-11-22T20:20:35.371Z,3.21
2018-11-22T20:23:03.976Z,3.07
2018-11-22T20:25:32.528Z,3.12
2018-11-22T20:28:01.660Z,3.13
2018-11-22T20:30:32.457Z,3.21
2018-11-22T20:33:01.366Z,3.17
2018-11-22T20:35:30.758Z,3.20
2018-11-22T20:37:59.383Z,3.20
2018-11-22T20:40:28.437Z,3.14
2018-11-22T20:42:57.331Z,3.19
2018-11-22T20:45:26.974Z,3.22
2018-11-22T20:47:57.870Z,3.20
2018-11-22T20:50:27.390Z,3.20
2018-11-22T20:52:56.502Z,3.14
2018-11-22T20:55:27.305Z,3.14
2018-11-22T20:57:57.195Z,3.16
2018-11-22T21:00:27.077Z,3.14
2018-11-22T21:02:55.648Z,3.21
2018-11-22T21:05:24.819Z,3.26
2018-11-22T21:07:53.360Z,3.18
2018-11-22T21:10:23.178Z,3.20
2018-11-22T21:12:51.890Z,3.25
2018-11-22T21:15:22.855Z,3.27
2018-11-22T21:17:52.809Z,3.15
2018-11-22T21:20:23.140Z,3.13
2018-11-22T21:22:51.620Z,3.22
2018-11-22T21:25:20.982Z,3.27
2018-11-22T21:27:49.645Z,3.14
2018-11-22T21:30:21.218Z,3.15
2018-11-22T21:32:50.476Z,3.14
2018-11-22T21:35:19.478Z,3.22
2018-11-22T21:37:48.586Z,3.06
2018-11-22T21:40:17.873Z,3.12
2018-11-22T21:42:46.476Z,3.24
2018-11-22T21:45:16.681Z,3.12
2018-11-22T21:47:45.326Z,3.17
2018-11-22T21:50:15.019Z,3.12
2018-11-22T21:52:43.706Z,3.13
2018-11-22T21:55:18.951Z,3.14
2018-11-22T21:57:47.983Z,3.22
2018-11-22T22:00:39.232Z,3.22
2018-11-22T22:03:09.289Z,3.22
2018-11-22T22:05:38.204Z,3.28
2018-11-22T22:08:07.113Z,3.22
2018-11-22T22:10:35.871Z,3.32
2018-11-22T22:13:04.744Z,3.23
2018-11-22T22:15:34.384Z,3.21
2018-11-22T22:18:03.066Z,3.14
2018-11-22T22:20:32.994Z,3.22
2018-11-22T22:23:01.522Z,3.17
2018-11-22T22:25:30.621Z,3.13
2018-11-22T22:27:59.511Z,3.11
2018-11-22T22:30:29.345Z,3.18
2018-11-22T22:32:59.302Z,3.22
2018-11-22T22:35:27.827Z,3.21
2018-11-22T22:37:56.588Z,3.25
2018-11-22T22:40:26.573Z,3.19
2018-11-22T22:42:56.144Z,3.20
2018-11-22T22:45:25.712Z,3.31
2018-11-22T22:47:54.603Z,3.31
2018-11-22T22:50:24.469Z,3.34
2018-11-22T22:52:54.398Z,3.31
2018-11-22T22:55:22.960Z,3.16
2018-11-22T22:57:51.507Z,3.25
2018-11-22T23:00:27.231Z,3.27
2018-11-22T23:03:00.333Z,3.30
2018-11-22T23:05:29.774Z,3.34
2018-11-22T23:07:58.349Z,3.50
2018-11-22T23:10:27.193Z,3.23
2018-11-22T23:12:56.654Z,3.32
2018-11-22T23:15:26.282Z,3.37
2018-11-22T23:17:54.910Z,3.32
2018-11-22T23:20:25.818Z,3.49
2018-11-22T23:22:54.661Z,3.45
2018-11-22T23:25:24.248Z,3.39
2018-11-22T23:27:52.776Z,3.31
2018-11-22T23:30:27.186Z,3.26
2018-11-22T23:32:57.373Z,3.41
2018-11-22T23:35:26.071Z,3.45
2018-11-22T23:37:54.927Z,3.33
2018-11-22T23:40:24.714Z,3.33
2018-11-22T23:42:53.306Z,3.37
2018-11-22T23:45:23.083Z,3.45
2018-11-22T23:47:51.647Z,3.35
2018-11-22T23:50:22.564Z,3.30
2018-11-22T23:52:52.487Z,3.38
2018-11-22T23:55:22.302Z,3.33
2018-11-22T23:57:50.838Z,3.33
